Terminal Aerodrome Forecast
Issued by NWS

Home | Current Version | Previous Version | Text Only | Print | Product List | Glossary On
Versions: 1 2 3 4 5 6 7 8 9 10 11 12 13 14 15 16 17 18 19 20 21 22 23 24 25 26 27 28 29 30 31 32 33 34 35 36 37 38 39
320
FTUS43 KDLH 221459 AAA
TAFBRD
TAF AMD
KBRD 221459Z 2215/2312 34004KT P6SM FEW007
     FM221800 02005KT P6SM SCT010 BKN060
     FM222300 36006KT P6SM -SHRA BKN015
     FM230200 35007KT P6SM VCSH BKN008
     FM230500 35008KT P6SM OVC010=

USA.gov is the U.S. government's official web portal to all federal, state and local government web resources and services.